createdAt,value
2024-01-03T00:00:43.198Z,56.34
2024-01-03T00:03:10.694Z,56.58
2024-01-03T00:05:42.982Z,56.50
2024-01-03T00:08:29.127Z,56.38
2024-01-03T00:10:58.631Z,56.61
2024-01-03T00:13:34.336Z,56.54
2024-01-03T00:16:01.369Z,56.76
2024-01-03T00:18:34.934Z,56.99
2024-01-03T00:21:03.231Z,57.18
2024-01-03T00:23:59.454Z,57.15
2024-01-03T00:26:29.301Z,57.44
2024-01-03T00:28:58.643Z,57.53
2024-01-03T00:31:44.722Z,57.56
2024-01-03T00:34:24.516Z,57.65
2024-01-03T00:36:54.203Z,57.90
2024-01-03T00:39:34.949Z,57.80
2024-01-03T00:42:02.411Z,57.96
2024-01-03T00:44:31.014Z,57.80
2024-01-03T00:46:59.175Z,57.81
2024-01-03T00:49:27.225Z,57.67
2024-01-03T00:51:55.435Z,57.75
2024-01-03T00:54:23.648Z,57.72
2024-01-03T00:56:51.850Z,57.91
2024-01-03T00:59:20.192Z,57.80
2024-01-03T01:01:48.307Z,57.86
2024-01-03T01:04:17.177Z,57.86
2024-01-03T01:06:44.351Z,57.73
2024-01-03T01:09:11.617Z,57.74
2024-01-03T01:11:38.935Z,57.46
2024-01-03T01:14:06.150Z,57.37
2024-01-03T01:16:33.270Z,57.45
2024-01-03T01:19:00.502Z,57.59
2024-01-03T01:21:27.729Z,57.63
2024-01-03T01:23:54.909Z,57.67
2024-01-03T01:26:22.266Z,57.60
2024-01-03T01:28:49.452Z,57.53
2024-01-03T01:31:16.606Z,57.50
2024-01-03T01:33:43.883Z,57.41
2024-01-03T01:36:11.284Z,57.36
2024-01-03T01:38:38.504Z,57.30
2024-01-03T01:41:06.115Z,57.22
2024-01-03T01:43:33.668Z,57.20
2024-01-03T01:46:01.093Z,57.00
2024-01-03T01:48:28.644Z,56.80
2024-01-03T01:50:56.130Z,56.97
2024-01-03T01:53:23.747Z,56.85
2024-01-03T01:55:51.701Z,56.64
2024-01-03T01:58:22.816Z,56.61
2024-01-03T02:00:50.532Z,56.75
2024-01-03T02:03:18.291Z,56.65
2024-01-03T02:05:46.439Z,56.47
2024-01-03T02:08:14.192Z,56.51
2024-01-03T02:10:41.438Z,56.54
2024-01-03T02:13:08.804Z,56.60
2024-01-03T02:15:35.951Z,56.71
2024-01-03T02:18:06.783Z,56.69
2024-01-03T02:20:34.653Z,56.71
2024-01-03T02:23:02.138Z,56.75
2024-01-03T02:25:30.254Z,56.75
2024-01-03T02:27:57.417Z,56.85
2024-01-03T02:30:24.563Z,56.87
2024-01-03T02:32:51.882Z,56.83
2024-01-03T02:35:19.284Z,56.95
2024-01-03T02:37:46.705Z,56.94
2024-01-03T02:40:14.036Z,56.93
2024-01-03T02:42:41.107Z,57.07
2024-01-03T02:45:08.938Z,56.86
2024-01-03T02:47:37.692Z,56.79
2024-01-03T02:50:05.493Z,56.98
2024-01-03T02:52:32.726Z,56.94
2024-01-03T02:54:59.739Z,56.90
2024-01-03T02:57:26.992Z,56.95
2024-01-03T02:59:54.638Z,56.84
2024-01-03T03:02:21.837Z,56.88
2024-01-03T03:04:49.058Z,57.11
2024-01-03T03:07:16.111Z,56.85
2024-01-03T03:09:43.156Z,56.87
2024-01-03T03:12:10.189Z,56.81
2024-01-03T03:14:37.285Z,56.85
2024-01-03T03:17:04.596Z,56.85
2024-01-03T03:19:31.734Z,56.83
2024-01-03T03:21:58.909Z,56.79
2024-01-03T03:24:25.986Z,56.83
2024-01-03T03:26:54.585Z,56.96
2024-01-03T03:29:22.045Z,56.91
2024-01-03T03:31:49.853Z,57.05
2024-01-03T03:34:18.684Z,57.03
2024-01-03T03:36:46.409Z,57.08
2024-01-03T03:39:13.481Z,57.04
2024-01-03T03:41:41.176Z,57.20
2024-01-03T03:44:08.356Z,57.11
2024-01-03T03:46:35.513Z,57.11
2024-01-03T03:49:02.849Z,57.04
2024-01-03T03:51:30.051Z,57.15
2024-01-03T03:53:57.285Z,56.98
2024-01-03T03:56:26.173Z,57.01
2024-01-03T03:58:53.549Z,57.03
2024-01-03T04:01:20.632Z,56.86
2024-01-03T04:03:47.854Z,56.91
2024-01-03T04:06:16.666Z,56.75
2024-01-03T04:08:50.249Z,56.56
2024-01-03T04:11:17.722Z,56.64
2024-01-03T04:13:44.921Z,56.68
2024-01-03T04:16:12.017Z,56.47
2024-01-03T04:18:39.692Z,56.53
2024-01-03T04:21:09.046Z,56.31
2024-01-03T04:23:36.314Z,56.05
2024-01-03T04:26:03.444Z,55.90
2024-01-03T04:28:30.550Z,55.77
2024-01-03T04:30:57.858Z,55.79
2024-01-03T04:33:25.250Z,55.69
2024-01-03T04:35:54.402Z,55.72
2024-01-03T04:38:21.553Z,55.50
2024-01-03T04:40:48.647Z,55.45
2024-01-03T04:43:15.845Z,55.18
2024-01-03T04:45:44.555Z,55.26
2024-01-03T04:48:13.918Z,55.31
2024-01-03T04:50:41.433Z,55.05
2024-01-03T04:53:08.611Z,54.99
2024-01-03T04:55:35.667Z,54.84
2024-01-03T04:58:02.759Z,54.83
2024-01-03T05:00:30.904Z,54.56
2024-01-03T05:02:58.068Z,54.49
2024-01-03T05:05:25.562Z,54.59
2024-01-03T05:07:52.709Z,54.49
2024-01-03T05:10:19.842Z,54.59
2024-01-03T05:12:46.961Z,54.63
2024-01-03T05:15:14.165Z,54.70
2024-01-03T05:17:43.178Z,54.74
2024-01-03T05:20:10.660Z,54.81
2024-01-03T05:22:37.842Z,54.93
2024-01-03T05:25:07.564Z,54.73
2024-01-03T05:27:34.788Z,54.55
2024-01-03T05:30:01.919Z,54.65
2024-01-03T05:32:29.088Z,54.49
2024-01-03T05:34:56.238Z,54.52
2024-01-03T05:37:23.331Z,54.20
2024-01-03T05:39:50.480Z,54.07
2024-01-03T05:42:17.556Z,53.98
2024-01-03T05:44:44.635Z,53.85
2024-01-03T05:47:11.752Z,53.74
2024-01-03T05:49:38.870Z,53.68
2024-01-03T05:52:06.400Z,53.76
2024-01-03T05:54:34.174Z,53.56
2024-01-03T05:57:02.166Z,53.56
2024-01-03T05:59:30.072Z,53.57
2024-01-03T06:01:57.254Z,53.31
2024-01-03T06:04:24.374Z,53.43
2024-01-03T06:06:51.648Z,53.50
2024-01-03T06:09:19.250Z,53.44
2024-01-03T06:11:46.436Z,53.29
2024-01-03T06:14:14.272Z,53.34
2024-01-03T06:16:41.433Z,53.43
2024-01-03T06:19:08.842Z,53.45
2024-01-03T06:21:36.786Z,53.27
2024-01-03T06:24:04.207Z,53.22
2024-01-03T06:26:31.976Z,53.24
2024-01-03T06:28:59.324Z,53.21
2024-01-03T06:31:27.510Z,52.87
2024-01-03T06:33:54.902Z,53.04
2024-01-03T06:36:22.300Z,53.01
2024-01-03T06:38:49.938Z,53.10
2024-01-03T06:41:17.477Z,53.16
2024-01-03T06:43:45.940Z,53.34
2024-01-03T06:46:13.092Z,53.40
2024-01-03T06:48:40.478Z,53.41
2024-01-03T06:51:07.673Z,53.44
2024-01-03T06:53:39.006Z,53.25
2024-01-03T06:56:06.284Z,53.35
2024-01-03T06:58:33.425Z,53.40
2024-01-03T07:01:00.548Z,53.24
2024-01-03T07:03:28.767Z,53.26
2024-01-03T07:05:55.982Z,53.04
2024-01-03T07:08:23.153Z,52.97
2024-01-03T07:10:50.310Z,53.00
2024-01-03T07:13:17.406Z,53.10
2024-01-03T07:15:45.673Z,52.99
2024-01-03T07:18:13.206Z,53.00
2024-01-03T07:20:40.453Z,53.03
2024-01-03T07:23:07.588Z,52.84
2024-01-03T07:25:34.703Z,52.94
2024-01-03T07:28:01.756Z,53.02
2024-01-03T07:30:29.961Z,53.12
2024-01-03T07:32:59.112Z,53.09
2024-01-03T07:35:26.655Z,53.22
2024-01-03T07:37:53.976Z,53.20
2024-01-03T07:40:21.486Z,53.28
2024-01-03T07:42:48.595Z,53.34
2024-01-03T07:45:15.803Z,53.38
2024-01-03T07:47:43.007Z,53.39
2024-01-03T07:50:11.258Z,53.29
2024-01-03T07:52:38.589Z,53.40
2024-01-03T07:55:06.016Z,53.40
2024-01-03T07:57:33.281Z,53.46
2024-01-03T08:00:00.723Z,53.31
2024-01-03T08:02:28.234Z,53.21
2024-01-03T08:04:56.238Z,53.46
2024-01-03T08:07:23.514Z,53.09
2024-01-03T08:09:52.145Z,53.34
2024-01-03T08:12:19.376Z,53.26
2024-01-03T08:14:46.586Z,53.32
2024-01-03T08:17:13.794Z,53.32
2024-01-03T08:19:41.689Z,52.99
2024-01-03T08:22:09.108Z,52.98
2024-01-03T08:24:36.337Z,53.16
2024-01-03T08:27:04.702Z,53.33
2024-01-03T08:29:31.964Z,53.43
2024-01-03T08:31:59.093Z,53.49
2024-01-03T08:34:27.059Z,53.56
2024-01-03T08:36:54.230Z,53.85
2024-01-03T08:39:23.272Z,54.03
2024-01-03T08:41:54.879Z,54.22
2024-01-03T08:44:22.872Z,54.22
2024-01-03T08:46:50.224Z,54.29
2024-01-03T08:49:17.514Z,54.32
2024-01-03T08:51:49.494Z,54.44
2024-01-03T08:54:16.825Z,54.35
2024-01-03T08:56:43.969Z,54.51
2024-01-03T08:59:11.092Z,54.54
2024-01-03T09:01:38.261Z,54.53
2024-01-03T09:04:05.564Z,54.42
2024-01-03T09:06:37.337Z,54.58
2024-01-03T09:09:04.935Z,54.50
2024-01-03T09:11:32.345Z,54.53
2024-01-03T09:13:59.578Z,54.32
2024-01-03T09:16:28.256Z,54.26
2024-01-03T09:18:55.900Z,54.24
2024-01-03T09:21:23.394Z,54.11
2024-01-03T09:23:51.471Z,54.11
2024-01-03T09:26:22.649Z,54.08
2024-01-03T09:28:50.078Z,54.09
2024-01-03T09:31:17.388Z,53.84
2024-01-03T09:33:44.721Z,53.82
2024-01-03T09:36:25.752Z,54.19
2024-01-03T09:38:55.943Z,54.54
2024-01-03T09:41:24.421Z,54.41
2024-01-03T09:43:54.458Z,54.44
2024-01-03T09:46:22.061Z,54.40
2024-01-03T09:48:50.629Z,54.35
2024-01-03T09:51:20.329Z,54.25
2024-01-03T09:53:49.911Z,54.41
2024-01-03T09:56:17.071Z,54.47
2024-01-03T09:58:46.198Z,54.42
2024-01-03T10:01:13.489Z,54.49
2024-01-03T10:03:40.916Z,54.61
2024-01-03T10:06:19.434Z,54.74
2024-01-03T10:09:05.044Z,54.61
2024-01-03T10:11:32.685Z,54.73
2024-01-03T10:14:18.555Z,54.73
2024-01-03T10:16:46.064Z,55.03
2024-01-03T10:19:16.042Z,55.15
2024-01-03T10:21:54.104Z,55.33
2024-01-03T10:24:28.434Z,55.50
2024-01-03T10:26:56.589Z,55.59
2024-01-03T10:29:24.331Z,55.62
2024-01-03T10:31:51.786Z,55.73
2024-01-03T10:34:26.119Z,55.58
2024-01-03T10:36:55.572Z,56.01
2024-01-03T10:39:24.062Z,56.21
2024-01-03T10:41:54.941Z,56.12
2024-01-03T10:44:23.145Z,56.42
2024-01-03T10:46:55.768Z,56.43
2024-01-03T10:49:23.405Z,56.45
2024-01-03T10:52:03.480Z,56.39
2024-01-03T10:54:43.593Z,56.38
2024-01-03T10:57:13.157Z,56.67
2024-01-03T10:59:53.994Z,56.75
2024-01-03T11:02:36.323Z,56.73
2024-01-03T11:06:06.449Z,56.91
2024-01-03T11:08:55.376Z,56.84
2024-01-03T11:11:39.644Z,56.83
2024-01-03T11:14:27.501Z,56.87
2024-01-03T11:16:55.102Z,57.11
2024-01-03T11:19:34.049Z,57.11
2024-01-03T11:22:06.259Z,56.93
2024-01-03T11:24:33.242Z,56.82
2024-01-03T11:27:05.179Z,56.72
2024-01-03T11:29:47.908Z,56.65
2024-01-03T11:32:33.457Z,56.46
2024-01-03T11:35:05.477Z,56.60
2024-01-03T11:37:34.749Z,56.45
2024-01-03T11:40:02.193Z,56.44
2024-01-03T11:42:39.502Z,56.20
2024-01-03T11:45:15.662Z,56.14
2024-01-03T11:47:46.933Z,55.97
2024-01-03T11:50:17.171Z,56.13
2024-01-03T11:52:47.970Z,55.73
2024-01-03T11:55:17.890Z,55.67
2024-01-03T11:57:46.411Z,55.34
2024-01-03T12:00:22.962Z,55.38
2024-01-03T12:02:55.134Z,55.05
2024-01-03T12:05:27.300Z,54.87
2024-01-03T12:07:57.759Z,54.91
2024-01-03T12:10:25.954Z,55.02
2024-01-03T12:12:53.935Z,54.94
2024-01-03T12:15:38.618Z,54.66
2024-01-03T12:18:15.942Z,54.76
2024-01-03T12:20:43.459Z,54.56
2024-01-03T12:23:12.777Z,54.46
2024-01-03T12:25:40.749Z,53.91
2024-01-03T12:28:09.569Z,53.82
2024-01-03T12:30:36.924Z,53.80
2024-01-03T12:33:17.427Z,53.52
2024-01-03T12:35:49.665Z,53.55
2024-01-03T12:38:17.045Z,53.55
2024-01-03T12:40:45.262Z,53.28
2024-01-03T12:43:15.946Z,53.30
2024-01-03T12:45:45.231Z,53.48
2024-01-03T12:48:12.558Z,53.21
2024-01-03T12:50:41.251Z,53.38
2024-01-03T12:53:08.702Z,53.34
2024-01-03T12:55:35.999Z,53.34
2024-01-03T12:58:03.071Z,53.19
2024-01-03T13:00:30.267Z,53.19
2024-01-03T13:02:57.342Z,53.07
2024-01-03T13:05:43.464Z,53.28
2024-01-03T13:08:10.642Z,53.17
2024-01-03T13:10:37.770Z,53.01
2024-01-03T13:13:06.998Z,52.87
2024-01-03T13:15:34.403Z,52.57
2024-01-03T13:18:02.275Z,52.46
2024-01-03T13:20:29.668Z,52.47
2024-01-03T13:22:56.757Z,52.16
2024-01-03T13:25:23.870Z,52.28
2024-01-03T13:27:51.129Z,52.07
2024-01-03T13:30:19.334Z,51.80
2024-01-03T13:32:46.648Z,51.71
2024-01-03T13:35:13.956Z,51.40
2024-01-03T13:37:41.078Z,51.46
2024-01-03T13:40:08.921Z,51.28
2024-01-03T13:42:36.124Z,51.25
2024-01-03T13:45:03.323Z,50.84
2024-01-03T13:47:30.580Z,50.82
2024-01-03T13:49:57.738Z,50.98
2024-01-03T13:52:24.918Z,50.67
2024-01-03T13:54:52.248Z,50.66
2024-01-03T13:57:19.438Z,50.35
2024-01-03T13:59:46.559Z,50.49
2024-01-03T14:02:13.932Z,50.13
2024-01-03T14:04:41.884Z,50.39
2024-01-03T14:07:09.061Z,50.16
2024-01-03T14:09:41.851Z,50.05
2024-01-03T14:12:09.087Z,50.10
2024-01-03T14:14:37.543Z,49.92
2024-01-03T14:17:05.784Z,49.82
2024-01-03T14:19:33.210Z,49.88
2024-01-03T14:22:02.316Z,49.77
2024-01-03T14:24:29.505Z,49.99
2024-01-03T14:26:56.983Z,49.66
2024-01-03T14:29:24.258Z,49.70
2024-01-03T14:31:51.443Z,49.74
2024-01-03T14:34:18.758Z,49.95
2024-01-03T14:37:07.312Z,49.79
2024-01-03T14:39:42.833Z,50.09
2024-01-03T14:42:12.555Z,50.09
2024-01-03T14:44:39.938Z,50.04
2024-01-03T14:47:07.327Z,49.97
2024-01-03T14:49:34.639Z,49.99
2024-01-03T14:52:02.699Z,50.00
2024-01-03T14:54:29.883Z,50.08
2024-01-03T14:56:57.439Z,50.13
2024-01-03T14:59:24.883Z,50.15
2024-01-03T15:01:52.002Z,49.92
2024-01-03T15:04:21.340Z,49.95
2024-01-03T15:07:14.620Z,49.91
2024-01-03T15:09:42.112Z,50.04
2024-01-03T15:12:09.356Z,49.84
2024-01-03T15:14:37.984Z,49.94
2024-01-03T15:17:06.470Z,49.82
2024-01-03T15:19:33.664Z,49.73
2024-01-03T15:22:07.743Z,49.56
2024-01-03T15:24:36.724Z,49.62
2024-01-03T15:27:04.472Z,49.57
2024-01-03T15:29:33.241Z,49.48
2024-01-03T15:32:00.360Z,49.22
2024-01-03T15:34:28.735Z,49.06
2024-01-03T15:36:56.540Z,49.13
2024-01-03T15:39:26.005Z,48.90
2024-01-03T15:41:54.657Z,48.89
2024-01-03T15:44:21.899Z,48.87
2024-01-03T15:46:49.039Z,48.87
2024-01-03T15:49:16.267Z,48.83
2024-01-03T15:52:10.689Z,48.71
2024-01-03T15:54:46.065Z,48.73
2024-01-03T15:57:15.960Z,48.93
2024-01-03T15:59:44.590Z,49.11
2024-01-03T16:02:11.944Z,49.12
2024-01-03T16:04:39.133Z,49.30
2024-01-03T16:07:06.275Z,49.59
2024-01-03T16:09:36.142Z,49.74
2024-01-03T16:12:04.417Z,50.29
2024-01-03T16:14:31.635Z,50.54
2024-01-03T16:16:58.831Z,50.74
2024-01-03T16:19:27.222Z,50.81
2024-01-03T16:21:55.131Z,51.02
2024-01-03T16:24:23.005Z,51.16
2024-01-03T16:26:56.355Z,51.23
2024-01-03T16:29:26.767Z,51.23
2024-01-03T16:31:57.771Z,51.40
2024-01-03T16:34:27.374Z,51.58
2024-01-03T16:37:00.844Z,51.71
2024-01-03T16:39:28.278Z,51.81
2024-01-03T16:41:58.674Z,52.05
2024-01-03T16:44:26.172Z,52.21
2024-01-03T16:46:54.066Z,52.47
2024-01-03T16:49:21.761Z,52.54
2024-01-03T16:51:49.486Z,52.67
2024-01-03T16:54:17.037Z,52.82
2024-01-03T16:56:47.725Z,52.87
2024-01-03T16:59:17.176Z,53.17
2024-01-03T17:01:44.906Z,53.26
2024-01-03T17:04:14.132Z,53.37
2024-01-03T17:06:45.528Z,53.51
2024-01-03T17:09:16.109Z,53.71
2024-01-03T17:11:43.969Z,53.94
2024-01-03T17:14:11.339Z,53.76
2024-01-03T17:16:38.493Z,53.92
2024-01-03T17:19:06.028Z,53.76
2024-01-03T17:21:33.686Z,54.04
2024-01-03T17:24:01.873Z,53.81
2024-01-03T17:26:36.195Z,53.96
2024-01-03T17:29:05.190Z,53.94
2024-01-03T17:31:35.615Z,54.17
2024-01-03T17:34:03.430Z,54.12
2024-01-03T17:36:30.646Z,54.12
2024-01-03T17:38:58.058Z,54.24
2024-01-03T17:41:30.763Z,54.24
2024-01-03T17:43:59.439Z,54.39
2024-01-03T17:46:26.774Z,54.54
2024-01-03T17:48:54.643Z,54.51
2024-01-03T17:51:22.814Z,54.44
2024-01-03T17:53:51.406Z,54.56
2024-01-03T17:56:29.624Z,54.49
2024-01-03T17:58:57.971Z,54.86
2024-01-03T18:01:25.675Z,54.87
2024-01-03T18:03:53.257Z,54.95
2024-01-03T18:06:20.670Z,54.96
2024-01-03T18:08:47.927Z,55.04
2024-01-03T18:11:15.163Z,55.03
2024-01-03T18:13:42.199Z,55.17
2024-01-03T18:16:09.375Z,55.16
2024-01-03T18:18:36.817Z,55.28
2024-01-03T18:21:07.893Z,55.34
2024-01-03T18:23:38.005Z,55.34
2024-01-03T18:26:05.750Z,55.42
2024-01-03T18:28:33.071Z,55.40
2024-01-03T18:31:01.036Z,55.49
2024-01-03T18:33:28.558Z,55.54
2024-01-03T18:35:55.977Z,55.62
2024-01-03T18:38:23.203Z,55.59
2024-01-03T18:40:50.319Z,55.66
2024-01-03T18:43:17.634Z,55.64
2024-01-03T18:45:44.882Z,55.58
2024-01-03T18:48:12.583Z,55.64
2024-01-03T18:50:40.182Z,55.67
2024-01-03T18:53:07.294Z,55.66
2024-01-03T18:55:34.378Z,55.56
2024-01-03T18:58:01.547Z,55.56
2024-01-03T19:00:29.866Z,55.45
2024-01-03T19:02:57.215Z,55.36
2024-01-03T19:05:29.726Z,55.31
2024-01-03T19:07:57.214Z,55.35
2024-01-03T19:10:24.361Z,55.34
2024-01-03T19:12:51.449Z,55.22
2024-01-03T19:15:19.731Z,55.28
2024-01-03T19:17:47.172Z,55.23
2024-01-03T19:20:14.559Z,55.14
2024-01-03T19:22:43.666Z,55.18
2024-01-03T19:25:14.522Z,55.20
2024-01-03T19:27:42.047Z,55.17
2024-01-03T19:30:10.256Z,55.16
2024-01-03T19:32:37.694Z,55.16
2024-01-03T19:35:09.145Z,55.30
2024-01-03T19:37:36.336Z,55.53
2024-01-03T19:40:04.009Z,55.36
2024-01-03T19:42:31.233Z,55.29
2024-01-03T19:44:58.622Z,55.24
2024-01-03T19:47:26.143Z,55.19
2024-01-03T19:49:53.533Z,55.21
2024-01-03T19:52:20.821Z,55.20
2024-01-03T19:54:47.918Z,55.14
2024-01-03T19:57:17.150Z,55.29
2024-01-03T19:59:45.003Z,55.17
2024-01-03T20:02:12.255Z,55.09
2024-01-03T20:04:43.103Z,54.95
2024-01-03T20:07:10.499Z,55.15
2024-01-03T20:09:37.612Z,55.21
2024-01-03T20:12:06.862Z,54.89
2024-01-03T20:14:34.710Z,55.17
2024-01-03T20:17:02.132Z,54.99
2024-01-03T20:19:29.445Z,54.87
2024-01-03T20:21:56.760Z,54.73
2024-01-03T20:24:26.064Z,54.87
2024-01-03T20:26:53.783Z,54.90
2024-01-03T20:29:21.119Z,54.74
2024-01-03T20:31:52.970Z,54.59
2024-01-03T20:34:20.685Z,54.85
2024-01-03T20:36:48.381Z,54.54
2024-01-03T20:39:18.673Z,54.61
2024-01-03T20:41:49.258Z,54.44
2024-01-03T20:44:17.803Z,54.35
2024-01-03T20:46:49.216Z,54.29
2024-01-03T20:49:16.793Z,54.28
2024-01-03T20:51:44.592Z,54.02
2024-01-03T20:54:11.810Z,54.11
2024-01-03T20:56:47.181Z,54.02
2024-01-03T20:59:15.555Z,54.11
2024-01-03T21:01:51.514Z,53.90
2024-01-03T21:04:19.191Z,53.93
2024-01-03T21:06:47.552Z,53.80
2024-01-03T21:09:15.114Z,53.79
2024-01-03T21:11:42.408Z,53.68
2024-01-03T21:14:09.456Z,53.50
2024-01-03T21:16:36.648Z,53.41
2024-01-03T21:19:03.876Z,53.46
2024-01-03T21:21:34.369Z,53.42
2024-01-03T21:24:01.729Z,53.35
2024-01-03T21:26:30.265Z,53.32
2024-01-03T21:28:57.644Z,53.27
2024-01-03T21:31:25.432Z,53.16
2024-01-03T21:33:52.873Z,53.10
2024-01-03T21:36:20.070Z,53.15
2024-01-03T21:38:47.176Z,53.02
2024-01-03T21:41:14.748Z,52.90
2024-01-03T21:43:42.842Z,52.93
2024-01-03T21:46:11.357Z,53.13
2024-01-03T21:48:38.974Z,52.70
2024-01-03T21:51:06.285Z,52.98
2024-01-03T21:53:33.580Z,53.00
2024-01-03T21:56:03.315Z,52.74
2024-01-03T21:58:30.825Z,52.69
2024-01-03T22:00:58.142Z,52.71
2024-01-03T22:03:27.405Z,52.73
2024-01-03T22:05:54.748Z,52.66
2024-01-03T22:08:22.109Z,52.55
2024-01-03T22:10:49.646Z,52.39
2024-01-03T22:13:17.187Z,52.57
2024-01-03T22:15:44.242Z,52.52
2024-01-03T22:18:11.525Z,52.47
2024-01-03T22:20:38.853Z,52.42
2024-01-03T22:23:10.788Z,52.53
2024-01-03T22:25:37.992Z,52.52
2024-01-03T22:28:05.330Z,52.53
2024-01-03T22:30:32.820Z,52.41
2024-01-03T22:33:01.423Z,52.53
2024-01-03T22:35:28.686Z,52.51
2024-01-03T22:37:56.181Z,52.32
2024-01-03T22:40:24.025Z,52.43
2024-01-03T22:42:51.265Z,52.50
2024-01-03T22:45:18.428Z,52.33
2024-01-03T22:47:46.312Z,52.38
2024-01-03T22:50:13.536Z,52.19
2024-01-03T22:52:40.605Z,52.22
2024-01-03T22:55:08.729Z,52.24
2024-01-03T22:57:37.031Z,52.23
2024-01-03T23:00:12.218Z,52.16
2024-01-03T23:02:39.621Z,52.27
2024-01-03T23:05:08.242Z,52.22
2024-01-03T23:07:35.360Z,52.25
2024-01-03T23:10:02.537Z,52.16
2024-01-03T23:12:29.622Z,52.31
2024-01-03T23:14:56.661Z,52.52
2024-01-03T23:17:23.890Z,52.32
2024-01-03T23:19:51.260Z,52.26
2024-01-03T23:22:19.049Z,52.29
2024-01-03T23:24:46.137Z,52.29
2024-01-03T23:27:13.208Z,52.36
2024-01-03T23:29:40.298Z,52.06
2024-01-03T23:32:07.407Z,52.21
2024-01-03T23:34:34.588Z,52.29
2024-01-03T23:37:01.943Z,52.16
2024-01-03T23:39:29.166Z,52.18
2024-01-03T23:41:56.687Z,52.06
2024-01-03T23:44:23.885Z,52.10
2024-01-03T23:46:51.023Z,51.96
2024-01-03T23:49:18.300Z,51.98
2024-01-03T23:51:45.686Z,52.08
2024-01-03T23:54:12.842Z,51.98
2024-01-03T23:56:40.125Z,52.02
2024-01-03T23:59:07.160Z,51.99
